Terminal Aerodrome Forecast
Issued by NWS

Current Version | Previous Version | Graphics & Text | Print | Product List | Glossary On
Versions: 1 2 3 4 5 6 7 8 9 10 11 12 13 14 15 16 17 18 19 20 21 22 23 24 25
000
FTUS41 KRLX 291400 AAA
TAFCKB
TAF AMD
KCKB 291443Z 2915/3012 14006KT P6SM BKN180
     FM291800 19008G18KT P6SM -RA OVC050
     FM292000 19010G18KT P6SM OVC050
     FM300000 27011G20KT P6SM OVC025
     FM300200 28011G20KT P6SM -RA OVC015
     FM300700 27012G22KT 4SM -SN OVC012
     FM300800 27011G20KT 1SM -SN OVC010=

USA.gov is the U.S. government's official web portal to all federal, state and local government web resources and services.